Terminal Aerodrome Forecast
Issued by NWS

Home | Current Version | Previous Version | Text Only | Print | Product List | Glossary On
Versions: 1 2 3 4 5 6 7 8 9 10 11 12 13 14 15 16
143
FTUS45 KTFX 091225 AAA
TAFGTF
TAF AMD
KGTF 091225Z 0912/1012 36004KT 5SM -SN SCT025 OVC045
      TEMPO 0912/0916 2SM -SN OVC025
     FM091600 VRB03KT P6SM VCSH OVC025
     FM100000 05005KT P6SM OVC045 PROB30 1000/1004 4SM -SN OVC015
     FM100400 36005KT 4SM -SN OVC030
     FM101000 02005KT 2SM -SN OVC010=

USA.gov is the U.S. government's official web portal to all federal, state and local government web resources and services.